Arvilla, North Dakota
Current Conditions -  °F | °C
As of 2:58 PM on Monday 24 Nov 2014 (Local Time) from KRDR Reporting Station
Clear Clear  
Wind Chill: -16°   Ceiling: Unl
Heat Index: -7°   Visibility: 10mi
Dew Point: -13°   Wind: 21mph
Humidity: 64%   Direction: 360°N
Pressure: 29.87"   Gusts: 29mph
Location:  47.92°N, 97.49°W
Report Text: KRDR 242058Z AUTO 36018G25KT 10SM CLR M07/M13 A2987 RMK AO2 PK WND 34031/24 SLP138 T10681126 52021
Loading
Personal Weather Stations






























Interactive Weather Map New forecast layout! Learn more

10-Day Weather Forecast

Advertisements
Track Severe Weather on mobile